sensor_id;sensor_type;location;lat;lon;timestamp;P1;durP1;ratioP1;P2;durP2;ratioP2
3549;SDS011;45572;48.804;8.330;2022-10-23T00:01:54;14.43;;;5.10;;
3549;SDS011;45572;48.804;8.330;2022-10-23T00:04:22;8.52;;;4.22;;
3549;SDS011;45572;48.804;8.330;2022-10-23T00:06:51;12.32;;;5.80;;
3549;SDS011;45572;48.804;8.330;2022-10-23T00:09:20;11.30;;;5.15;;
3549;SDS011;45572;48.804;8.330;2022-10-23T00:11:50;14.57;;;8.10;;
3549;SDS011;45572;48.804;8.330;2022-10-23T00:14:19;17.88;;;5.95;;
3549;SDS011;45572;48.804;8.330;2022-10-23T00:16:50;13.60;;;7.53;;
3549;SDS011;45572;48.804;8.330;2022-10-23T00:19:18;16.15;;;8.50;;
3549;SDS011;45572;48.804;8.330;2022-10-23T00:21:46;15.25;;;7.90;;
3549;SDS011;45572;48.804;8.330;2022-10-23T00:24:13;9.25;;;6.78;;
3549;SDS011;45572;48.804;8.330;2022-10-23T00:26:41;11.10;;;6.55;;
3549;SDS011;45572;48.804;8.330;2022-10-23T00:29:09;13.00;;;6.47;;
3549;SDS011;45572;48.804;8.330;2022-10-23T00:31:38;12.45;;;7.47;;
3549;SDS011;45572;48.804;8.330;2022-10-23T00:34:07;14.45;;;6.25;;
3549;SDS011;45572;48.804;8.330;2022-10-23T00:36:37;12.48;;;6.60;;
3549;SDS011;45572;48.804;8.330;2022-10-23T00:39:05;9.43;;;6.85;;
3549;SDS011;45572;48.804;8.330;2022-10-23T00:41:33;12.93;;;7.97;;
3549;SDS011;45572;48.804;8.330;2022-10-23T00:44:05;15.23;;;8.00;;
3549;SDS011;45572;48.804;8.330;2022-10-23T00:46:35;14.15;;;7.32;;
3549;SDS011;45572;48.804;8.330;2022-10-23T00:49:04;12.63;;;6.47;;
3549;SDS011;45572;48.804;8.330;2022-10-23T00:51:37;14.70;;;4.50;;
3549;SDS011;45572;48.804;8.330;2022-10-23T00:54:07;11.30;;;3.10;;
3549;SDS011;45572;48.804;8.330;2022-10-23T00:56:50;8.45;;;3.53;;
3549;SDS011;45572;48.804;8.330;2022-10-23T00:59:19;10.57;;;3.95;;
3549;SDS011;45572;48.804;8.330;2022-10-23T01:01:47;11.40;;;3.55;;
3549;SDS011;45572;48.804;8.330;2022-10-23T01:04:15;5.35;;;3.05;;
3549;SDS011;45572;48.804;8.330;2022-10-23T01:06:50;9.70;;;3.97;;
3549;SDS011;45572;48.804;8.330;2022-10-23T01:09:27;10.30;;;3.47;;
3549;SDS011;45572;48.804;8.330;2022-10-23T01:12:03;12.35;;;2.72;;
3549;SDS011;45572;48.804;8.330;2022-10-23T01:14:37;4.80;;;2.25;;
3549;SDS011;45572;48.804;8.330;2022-10-23T01:17:11;8.90;;;2.22;;
3549;SDS011;45572;48.804;8.330;2022-10-23T01:19:47;6.35;;;2.17;;
3549;SDS011;45572;48.804;8.330;2022-10-23T01:22:31;6.00;;;2.13;;
3549;SDS011;45572;48.804;8.330;2022-10-23T01:25:18;2.75;;;2.08;;
3549;SDS011;45572;48.804;8.330;2022-10-23T01:27:58;2.97;;;1.73;;
3549;SDS011;45572;48.804;8.330;2022-10-23T01:30:29;4.00;;;2.00;;
3549;SDS011;45572;48.804;8.330;2022-10-23T01:33:03;3.85;;;1.90;;
3549;SDS011;45572;48.804;8.330;2022-10-23T01:35:45;2.00;;;1.55;;
3549;SDS011;45572;48.804;8.330;2022-10-23T01:38:17;4.60;;;2.42;;
3549;SDS011;45572;48.804;8.330;2022-10-23T01:40:57;8.70;;;2.30;;
3549;SDS011;45572;48.804;8.330;2022-10-23T01:43:31;4.20;;;1.40;;
3549;SDS011;45572;48.804;8.330;2022-10-23T01:46:07;4.75;;;1.98;;
3549;SDS011;45572;48.804;8.330;2022-10-23T01:48:39;5.13;;;1.50;;
3549;SDS011;45572;48.804;8.330;2022-10-23T01:51:12;6.07;;;1.65;;
3549;SDS011;45572;48.804;8.330;2022-10-23T01:53:44;7.97;;;2.50;;
3549;SDS011;45572;48.804;8.330;2022-10-23T01:56:16;3.95;;;1.20;;
3549;SDS011;45572;48.804;8.330;2022-10-23T01:58:49;2.75;;;1.88;;
3549;SDS011;45572;48.804;8.330;2022-10-23T02:01:22;2.45;;;1.20;;
3549;SDS011;45572;48.804;8.330;2022-10-23T02:03:54;3.15;;;1.20;;
3549;SDS011;45572;48.804;8.330;2022-10-23T02:06:24;2.90;;;1.40;;
3549;SDS011;45572;48.804;8.330;2022-10-23T02:08:52;12.05;;;2.35;;
3549;SDS011;45572;48.804;8.330;2022-10-23T02:11:20;3.90;;;1.75;;
3549;SDS011;45572;48.804;8.330;2022-10-23T02:13:54;4.03;;;1.10;;
3549;SDS011;45572;48.804;8.330;2022-10-23T02:16:29;3.05;;;1.17;;
3549;SDS011;45572;48.804;8.330;2022-10-23T02:19:06;1.92;;;1.50;;
3549;SDS011;45572;48.804;8.330;2022-10-23T02:21:44;5.38;;;1.33;;
3549;SDS011;45572;48.804;8.330;2022-10-23T02:24:18;3.45;;;1.40;;
3549;SDS011;45572;48.804;8.330;2022-10-23T02:26:51;6.32;;;1.70;;
3549;SDS011;45572;48.804;8.330;2022-10-23T02:29:24;1.58;;;0.80;;
3549;SDS011;45572;48.804;8.330;2022-10-23T02:31:57;2.85;;;1.33;;
3549;SDS011;45572;48.804;8.330;2022-10-23T02:34:25;5.07;;;1.50;;
3549;SDS011;45572;48.804;8.330;2022-10-23T02:36:54;8.57;;;1.50;;
3549;SDS011;45572;48.804;8.330;2022-10-23T02:39:23;3.53;;;3.22;;
3549;SDS011;45572;48.804;8.330;2022-10-23T02:41:55;4.57;;;1.80;;
3549;SDS011;45572;48.804;8.330;2022-10-23T02:44:34;2.40;;;1.63;;
3549;SDS011;45572;48.804;8.330;2022-10-23T02:47:13;4.30;;;2.05;;
3549;SDS011;45572;48.804;8.330;2022-10-23T02:49:49;2.42;;;1.25;;
3549;SDS011;45572;48.804;8.330;2022-10-23T02:52:24;6.43;;;2.22;;
3549;SDS011;45572;48.804;8.330;2022-10-23T02:55:04;4.95;;;1.40;;
3549;SDS011;45572;48.804;8.330;2022-10-23T02:57:47;3.35;;;1.20;;
3549;SDS011;45572;48.804;8.330;2022-10-23T03:00:22;4.43;;;2.10;;
3549;SDS011;45572;48.804;8.330;2022-10-23T03:02:52;6.00;;;2.15;;
3549;SDS011;45572;48.804;8.330;2022-10-23T03:05:27;2.58;;;2.00;;
3549;SDS011;45572;48.804;8.330;2022-10-23T03:07:58;3.67;;;1.20;;
3549;SDS011;45572;48.804;8.330;2022-10-23T03:10:29;2.83;;;1.55;;
3549;SDS011;45572;48.804;8.330;2022-10-23T03:12:57;8.02;;;1.50;;
3549;SDS011;45572;48.804;8.330;2022-10-23T03:15:29;18.42;;;1.45;;
3549;SDS011;45572;48.804;8.330;2022-10-23T03:17:57;2.90;;;1.13;;
3549;SDS011;45572;48.804;8.330;2022-10-23T03:20:25;9.73;;;1.40;;
3549;SDS011;45572;48.804;8.330;2022-10-23T03:22:52;4.00;;;1.15;;
3549;SDS011;45572;48.804;8.330;2022-10-23T03:25:20;3.45;;;1.15;;
3549;SDS011;45572;48.804;8.330;2022-10-23T03:27:49;9.35;;;1.50;;
3549;SDS011;45572;48.804;8.330;2022-10-23T03:30:17;1.40;;;0.93;;
3549;SDS011;45572;48.804;8.330;2022-10-23T03:32:50;9.52;;;1.13;;
3549;SDS011;45572;48.804;8.330;2022-10-23T03:35:18;7.75;;;2.00;;
3549;SDS011;45572;48.804;8.330;2022-10-23T03:37:45;4.10;;;1.50;;
3549;SDS011;45572;48.804;8.330;2022-10-23T03:40:14;7.72;;;1.80;;
3549;SDS011;45572;48.804;8.330;2022-10-23T03:42:43;3.30;;;1.30;;
3549;SDS011;45572;48.804;8.330;2022-10-23T03:45:14;5.28;;;1.67;;
3549;SDS011;45572;48.804;8.330;2022-10-23T03:47:42;2.78;;;1.27;;
3549;SDS011;45572;48.804;8.330;2022-10-23T03:50:13;7.50;;;1.30;;
3549;SDS011;45572;48.804;8.330;2022-10-23T03:52:41;9.27;;;1.75;;
3549;SDS011;45572;48.804;8.330;2022-10-23T03:55:11;2.65;;;1.23;;
3549;SDS011;45572;48.804;8.330;2022-10-23T03:57:39;8.00;;;1.83;;
3549;SDS011;45572;48.804;8.330;2022-10-23T04:00:08;4.25;;;1.30;;
3549;SDS011;45572;48.804;8.330;2022-10-23T04:02:45;9.45;;;2.40;;
3549;SDS011;45572;48.804;8.330;2022-10-23T04:05:15;3.00;;;1.20;;
3549;SDS011;45572;48.804;8.330;2022-10-23T04:07:52;4.20;;;1.50;;
3549;SDS011;45572;48.804;8.330;2022-10-23T04:10:20;2.55;;;1.40;;
3549;SDS011;45572;48.804;8.330;2022-10-23T04:12:48;5.18;;;1.33;;
3549;SDS011;45572;48.804;8.330;2022-10-23T04:15:16;2.65;;;1.27;;
3549;SDS011;45572;48.804;8.330;2022-10-23T04:17:45;4.82;;;1.15;;
3549;SDS011;45572;48.804;8.330;2022-10-23T04:20:12;3.50;;;1.27;;
3549;SDS011;45572;48.804;8.330;2022-10-23T04:22:41;8.00;;;1.45;;
3549;SDS011;45572;48.804;8.330;2022-10-23T04:25:10;5.20;;;1.23;;
3549;SDS011;45572;48.804;8.330;2022-10-23T04:27:38;2.78;;;1.27;;
3549;SDS011;45572;48.804;8.330;2022-10-23T04:30:07;3.25;;;1.20;;
3549;SDS011;45572;48.804;8.330;2022-10-23T04:32:36;3.25;;;1.40;;
3549;SDS011;45572;48.804;8.330;2022-10-23T04:35:04;4.13;;;1.23;;
3549;SDS011;45572;48.804;8.330;2022-10-23T04:37:33;7.65;;;2.30;;
3549;SDS011;45572;48.804;8.330;2022-10-23T04:40:02;3.20;;;1.60;;
3549;SDS011;45572;48.804;8.330;2022-10-23T04:42:33;2.25;;;1.60;;
3549;SDS011;45572;48.804;8.330;2022-10-23T04:45:04;3.78;;;2.17;;
3549;SDS011;45572;48.804;8.330;2022-10-23T04:47:34;2.63;;;1.17;;
3549;SDS011;45572;48.804;8.330;2022-10-23T04:50:02;3.83;;;1.13;;
3549;SDS011;45572;48.804;8.330;2022-10-23T04:52:52;3.38;;;1.30;;
3549;SDS011;45572;48.804;8.330;2022-10-23T04:55:38;5.30;;;1.10;;
3549;SDS011;45572;48.804;8.330;2022-10-23T04:58:11;1.85;;;1.13;;
3549;SDS011;45572;48.804;8.330;2022-10-23T05:00:39;3.55;;;1.48;;
3549;SDS011;45572;48.804;8.330;2022-10-23T05:03:08;2.72;;;1.17;;
3549;SDS011;45572;48.804;8.330;2022-10-23T05:05:40;2.33;;;1.20;;
3549;SDS011;45572;48.804;8.330;2022-10-23T05:08:24;3.22;;;1.10;;
3549;SDS011;45572;48.804;8.330;2022-10-23T05:11:13;3.03;;;1.30;;
3549;SDS011;45572;48.804;8.330;2022-10-23T05:13:44;3.45;;;1.30;;
3549;SDS011;45572;48.804;8.330;2022-10-23T05:16:25;3.35;;;1.10;;
3549;SDS011;45572;48.804;8.330;2022-10-23T05:18:56;2.25;;;1.10;;
3549;SDS011;45572;48.804;8.330;2022-10-23T05:21:26;3.17;;;1.42;;
3549;SDS011;45572;48.804;8.330;2022-10-23T05:23:58;5.28;;;1.50;;
3549;SDS011;45572;48.804;8.330;2022-10-23T05:26:28;6.90;;;1.25;;
3549;SDS011;45572;48.804;8.330;2022-10-23T05:29:03;3.42;;;1.40;;
3549;SDS011;45572;48.804;8.330;2022-10-23T05:31:31;8.55;;;1.73;;
3549;SDS011;45572;48.804;8.330;2022-10-23T05:34:08;1.27;;;0.90;;
3549;SDS011;45572;48.804;8.330;2022-10-23T05:36:42;1.23;;;1.10;;
3549;SDS011;45572;48.804;8.330;2022-10-23T05:39:11;2.25;;;1.10;;
3549;SDS011;45572;48.804;8.330;2022-10-23T05:41:40;1.70;;;1.02;;
3549;SDS011;45572;48.804;8.330;2022-10-23T05:44:08;6.45;;;1.50;;
3549;SDS011;45572;48.804;8.330;2022-10-23T05:46:51;3.58;;;1.70;;
3549;SDS011;45572;48.804;8.330;2022-10-23T05:49:39;1.63;;;1.08;;
3549;SDS011;45572;48.804;8.330;2022-10-23T05:52:27;2.88;;;1.30;;
3549;SDS011;45572;48.804;8.330;2022-10-23T05:55:09;1.52;;;1.33;;
3549;SDS011;45572;48.804;8.330;2022-10-23T05:57:47;8.23;;;1.30;;
3549;SDS011;45572;48.804;8.330;2022-10-23T06:00:21;2.60;;;1.48;;
3549;SDS011;45572;48.804;8.330;2022-10-23T06:03:04;3.97;;;1.38;;
3549;SDS011;45572;48.804;8.330;2022-10-23T06:05:38;19.55;;;1.85;;
3549;SDS011;45572;48.804;8.330;2022-10-23T06:08:17;6.32;;;1.40;;
3549;SDS011;45572;48.804;8.330;2022-10-23T06:10:48;4.60;;;1.60;;
3549;SDS011;45572;48.804;8.330;2022-10-23T06:13:18;2.17;;;1.10;;
3549;SDS011;45572;48.804;8.330;2022-10-23T06:15:46;2.90;;;1.52;;
3549;SDS011;45572;48.804;8.330;2022-10-23T06:18:20;2.20;;;1.60;;
3549;SDS011;45572;48.804;8.330;2022-10-23T06:20:53;2.60;;;1.75;;
3549;SDS011;45572;48.804;8.330;2022-10-23T06:23:24;2.47;;;1.95;;
3549;SDS011;45572;48.804;8.330;2022-10-23T06:26:13;3.00;;;2.20;;
3549;SDS011;45572;48.804;8.330;2022-10-23T06:28:54;4.68;;;2.00;;
3549;SDS011;45572;48.804;8.330;2022-10-23T06:31:22;2.78;;;1.98;;
3549;SDS011;45572;48.804;8.330;2022-10-23T06:33:52;6.47;;;1.55;;
3549;SDS011;45572;48.804;8.330;2022-10-23T06:36:21;5.25;;;1.50;;
3549;SDS011;45572;48.804;8.330;2022-10-23T06:38:52;5.57;;;1.63;;
3549;SDS011;45572;48.804;8.330;2022-10-23T06:41:31;4.38;;;1.80;;
3549;SDS011;45572;48.804;8.330;2022-10-23T06:44:01;6.30;;;1.73;;
3549;SDS011;45572;48.804;8.330;2022-10-23T06:46:40;3.15;;;1.75;;
3549;SDS011;45572;48.804;8.330;2022-10-23T06:49:32;2.45;;;1.50;;
3549;SDS011;45572;48.804;8.330;2022-10-23T06:52:01;10.00;;;1.98;;
3549;SDS011;45572;48.804;8.330;2022-10-23T06:54:29;4.10;;;1.88;;
3549;SDS011;45572;48.804;8.330;2022-10-23T06:57:11;4.32;;;1.70;;
3549;SDS011;45572;48.804;8.330;2022-10-23T06:59:45;2.13;;;1.52;;
3549;SDS011;45572;48.804;8.330;2022-10-23T07:02:14;5.10;;;1.98;;
3549;SDS011;45572;48.804;8.330;2022-10-23T07:04:43;3.97;;;1.73;;
3549;SDS011;45572;48.804;8.330;2022-10-23T07:07:15;2.42;;;1.73;;
3549;SDS011;45572;48.804;8.330;2022-10-23T07:09:46;3.20;;;1.95;;
3549;SDS011;45572;48.804;8.330;2022-10-23T07:12:20;3.85;;;1.95;;
3549;SDS011;45572;48.804;8.330;2022-10-23T07:14:55;6.00;;;2.53;;
3549;SDS011;45572;48.804;8.330;2022-10-23T07:17:23;4.50;;;2.10;;
3549;SDS011;45572;48.804;8.330;2022-10-23T07:19:51;3.10;;;1.85;;
3549;SDS011;45572;48.804;8.330;2022-10-23T07:22:19;4.30;;;1.70;;
3549;SDS011;45572;48.804;8.330;2022-10-23T07:25:02;3.33;;;1.92;;
3549;SDS011;45572;48.804;8.330;2022-10-23T07:27:35;6.28;;;1.85;;
3549;SDS011;45572;48.804;8.330;2022-10-23T07:30:07;3.20;;;1.70;;
3549;SDS011;45572;48.804;8.330;2022-10-23T07:32:43;3.70;;;1.90;;
3549;SDS011;45572;48.804;8.330;2022-10-23T07:35:31;4.93;;;2.60;;
3549;SDS011;45572;48.804;8.330;2022-10-23T07:38:08;17.20;;;2.92;;
3549;SDS011;45572;48.804;8.330;2022-10-23T07:40:42;3.72;;;1.92;;
3549;SDS011;45572;48.804;8.330;2022-10-23T07:43:13;7.75;;;2.60;;
3549;SDS011;45572;48.804;8.330;2022-10-23T07:45:46;7.33;;;1.77;;
3549;SDS011;45572;48.804;8.330;2022-10-23T07:48:21;7.73;;;2.33;;
3549;SDS011;45572;48.804;8.330;2022-10-23T07:50:57;5.90;;;1.73;;
3549;SDS011;45572;48.804;8.330;2022-10-23T07:53:27;6.43;;;1.23;;
3549;SDS011;45572;48.804;8.330;2022-10-23T07:56:04;2.93;;;1.50;;
3549;SDS011;45572;48.804;8.330;2022-10-23T07:58:59;7.57;;;1.70;;
3549;SDS011;45572;48.804;8.330;2022-10-23T08:01:29;5.70;;;1.30;;
3549;SDS011;45572;48.804;8.330;2022-10-23T08:03:59;4.20;;;1.17;;
3549;SDS011;45572;48.804;8.330;2022-10-23T08:06:28;4.90;;;1.60;;
3549;SDS011;45572;48.804;8.330;2022-10-23T08:08:57;13.77;;;4.67;;
3549;SDS011;45572;48.804;8.330;2022-10-23T08:11:31;3.53;;;0.77;;
3549;SDS011;45572;48.804;8.330;2022-10-23T08:14:03;5.03;;;1.00;;
3549;SDS011;45572;48.804;8.330;2022-10-23T08:16:35;3.60;;;0.80;;
3549;SDS011;45572;48.804;8.330;2022-10-23T08:19:24;5.17;;;2.23;;
3549;SDS011;45572;48.804;8.330;2022-10-23T08:21:52;2.23;;;1.07;;
3549;SDS011;45572;48.804;8.330;2022-10-23T08:24:22;3.00;;;1.97;;
3549;SDS011;45572;48.804;8.330;2022-10-23T08:26:50;5.33;;;1.97;;
3549;SDS011;45572;48.804;8.330;2022-10-23T08:29:21;1.60;;;1.00;;
3549;SDS011;45572;48.804;8.330;2022-10-23T08:31:53;1.80;;;1.17;;
3549;SDS011;45572;48.804;8.330;2022-10-23T08:34:26;1.23;;;0.97;;
3549;SDS011;45572;48.804;8.330;2022-10-23T08:36:54;4.07;;;1.10;;
3549;SDS011;45572;48.804;8.330;2022-10-23T08:39:22;3.43;;;0.90;;
3549;SDS011;45572;48.804;8.330;2022-10-23T08:42:02;2.10;;;0.70;;
3549;SDS011;45572;48.804;8.330;2022-10-23T08:44:31;1.97;;;0.80;;
3549;SDS011;45572;48.804;8.330;2022-10-23T08:47:04;1.33;;;0.90;;
3549;SDS011;45572;48.804;8.330;2022-10-23T08:49:58;3.03;;;0.77;;
3549;SDS011;45572;48.804;8.330;2022-10-23T08:52:31;6.03;;;0.80;;
3549;SDS011;45572;48.804;8.330;2022-10-23T08:55:04;3.40;;;0.73;;
3549;SDS011;45572;48.804;8.330;2022-10-23T08:57:42;2.47;;;0.80;;
3549;SDS011;45572;48.804;8.330;2022-10-23T09:00:16;3.00;;;0.70;;
3549;SDS011;45572;48.804;8.330;2022-10-23T09:02:47;1.00;;;0.70;;
3549;SDS011;45572;48.804;8.330;2022-10-23T09:05:17;1.57;;;0.60;;
3549;SDS011;45572;48.804;8.330;2022-10-23T09:08:00;0.80;;;0.50;;
3549;SDS011;45572;48.804;8.330;2022-10-23T09:10:43;1.67;;;0.60;;
3549;SDS011;45572;48.804;8.330;2022-10-23T09:13:20;3.47;;;0.90;;
3549;SDS011;45572;48.804;8.330;2022-10-23T09:16:08;4.40;;;0.90;;
3549;SDS011;45572;48.804;8.330;2022-10-23T09:18:46;1.03;;;0.80;;
3549;SDS011;45572;48.804;8.330;2022-10-23T09:21:15;2.63;;;0.70;;
3549;SDS011;45572;48.804;8.330;2022-10-23T09:23:43;2.30;;;0.70;;
3549;SDS011;45572;48.804;8.330;2022-10-23T09:26:11;1.23;;;0.63;;
3549;SDS011;45572;48.804;8.330;2022-10-23T09:28:44;4.20;;;0.63;;
3549;SDS011;45572;48.804;8.330;2022-10-23T09:31:14;1.60;;;0.63;;
3549;SDS011;45572;48.804;8.330;2022-10-23T09:33:53;1.57;;;0.80;;
3549;SDS011;45572;48.804;8.330;2022-10-23T09:36:22;1.73;;;1.00;;
3549;SDS011;45572;48.804;8.330;2022-10-23T09:38:51;1.00;;;0.63;;
3549;SDS011;45572;48.804;8.330;2022-10-23T09:41:20;2.50;;;0.60;;
3549;SDS011;45572;48.804;8.330;2022-10-23T09:43:58;1.10;;;0.67;;
3549;SDS011;45572;48.804;8.330;2022-10-23T09:46:36;2.03;;;0.87;;
3549;SDS011;45572;48.804;8.330;2022-10-23T09:49:12;2.80;;;1.00;;
3549;SDS011;45572;48.804;8.330;2022-10-23T09:51:47;4.63;;;0.73;;
3549;SDS011;45572;48.804;8.330;2022-10-23T09:54:20;1.00;;;0.63;;
3549;SDS011;45572;48.804;8.330;2022-10-23T09:56:49;0.80;;;0.50;;
3549;SDS011;45572;48.804;8.330;2022-10-23T09:59:21;1.93;;;0.70;;
3549;SDS011;45572;48.804;8.330;2022-10-23T10:01:53;3.37;;;1.00;;
3549;SDS011;45572;48.804;8.330;2022-10-23T10:04:43;0.90;;;0.60;;
3549;SDS011;45572;48.804;8.330;2022-10-23T10:07:16;1.77;;;0.70;;
3549;SDS011;45572;48.804;8.330;2022-10-23T10:09:45;2.50;;;0.90;;
3549;SDS011;45572;48.804;8.330;2022-10-23T10:12:18;2.90;;;1.10;;
3549;SDS011;45572;48.804;8.330;2022-10-23T10:15:04;1.40;;;0.70;;
3549;SDS011;45572;48.804;8.330;2022-10-23T10:17:48;1.40;;;1.10;;
3549;SDS011;45572;48.804;8.330;2022-10-23T10:20:30;6.73;;;1.53;;
3549;SDS011;45572;48.804;8.330;2022-10-23T10:23:11;4.83;;;0.90;;
3549;SDS011;45572;48.804;8.330;2022-10-23T10:25:45;1.87;;;0.90;;
3549;SDS011;45572;48.804;8.330;2022-10-23T10:28:22;2.83;;;1.17;;
3549;SDS011;45572;48.804;8.330;2022-10-23T10:31:00;2.67;;;1.20;;
3549;SDS011;45572;48.804;8.330;2022-10-23T10:33:37;1.73;;;1.00;;
3549;SDS011;45572;48.804;8.330;2022-10-23T10:36:16;2.67;;;1.27;;
3549;SDS011;45572;48.804;8.330;2022-10-23T10:38:56;1.20;;;0.83;;
3549;SDS011;45572;48.804;8.330;2022-10-23T10:41:29;1.80;;;0.97;;
3549;SDS011;45572;48.804;8.330;2022-10-23T10:44:11;4.63;;;1.53;;
3549;SDS011;45572;48.804;8.330;2022-10-23T10:46:51;5.23;;;1.30;;
3549;SDS011;45572;48.804;8.330;2022-10-23T10:49:31;1.37;;;1.17;;
3549;SDS011;45572;48.804;8.330;2022-10-23T10:52:18;5.43;;;1.17;;
3549;SDS011;45572;48.804;8.330;2022-10-23T10:54:53;3.60;;;1.10;;
3549;SDS011;45572;48.804;8.330;2022-10-23T10:57:30;1.43;;;0.83;;
3549;SDS011;45572;48.804;8.330;2022-10-23T11:00:00;2.30;;;1.00;;
3549;SDS011;45572;48.804;8.330;2022-10-23T11:02:33;3.30;;;0.93;;
3549;SDS011;45572;48.804;8.330;2022-10-23T11:05:12;2.97;;;1.00;;
3549;SDS011;45572;48.804;8.330;2022-10-23T11:07:50;1.60;;;1.00;;
3549;SDS011;45572;48.804;8.330;2022-10-23T11:10:21;1.60;;;1.00;;
3549;SDS011;45572;48.804;8.330;2022-10-23T11:12:49;1.57;;;1.00;;
3549;SDS011;45572;48.804;8.330;2022-10-23T11:15:18;7.47;;;1.50;;
3549;SDS011;45572;48.804;8.330;2022-10-23T11:17:49;1.33;;;0.90;;
3549;SDS011;45572;48.804;8.330;2022-10-23T11:20:24;3.23;;;1.37;;
3549;SDS011;45572;48.804;8.330;2022-10-23T11:23:07;1.60;;;0.80;;
3549;SDS011;45572;48.804;8.330;2022-10-23T11:25:55;2.37;;;1.00;;
3549;SDS011;45572;48.804;8.330;2022-10-23T11:28:33;1.20;;;0.90;;
3549;SDS011;45572;48.804;8.330;2022-10-23T11:31:17;1.03;;;0.70;;
3549;SDS011;45572;48.804;8.330;2022-10-23T11:33:58;4.00;;;1.90;;
3549;SDS011;45572;48.804;8.330;2022-10-23T11:36:44;4.60;;;2.40;;
3549;SDS011;45572;48.804;8.330;2022-10-23T11:39:18;2.20;;;1.40;;
3549;SDS011;45572;48.804;8.330;2022-10-23T11:41:50;5.73;;;1.60;;
3549;SDS011;45572;48.804;8.330;2022-10-23T11:44:24;1.63;;;1.23;;
3549;SDS011;45572;48.804;8.330;2022-10-23T11:52:50;7.40;;;1.40;;
3549;SDS011;45572;48.804;8.330;2022-10-23T11:55:56;5.20;;;1.17;;
3549;SDS011;45572;48.804;8.330;2022-10-23T11:58:26;4.73;;;1.10;;
3549;SDS011;45572;48.804;8.330;2022-10-23T12:01:14;2.33;;;1.50;;
3549;SDS011;45572;48.804;8.330;2022-10-23T12:03:55;2.23;;;1.00;;
3549;SDS011;45572;48.804;8.330;2022-10-23T12:06:27;3.67;;;1.30;;
3549;SDS011;45572;48.804;8.330;2022-10-23T12:08:58;1.90;;;1.30;;
3549;SDS011;45572;48.804;8.330;2022-10-23T12:14:24;1.77;;;0.80;;
3549;SDS011;45572;48.804;8.330;2022-10-23T12:16:52;2.17;;;0.93;;
3549;SDS011;45572;48.804;8.330;2022-10-23T12:19:22;2.03;;;1.20;;
3549;SDS011;45572;48.804;8.330;2022-10-23T12:21:51;2.27;;;0.87;;
3549;SDS011;45572;48.804;8.330;2022-10-23T12:24:25;1.80;;;1.13;;
3549;SDS011;45572;48.804;8.330;2022-10-23T12:27:08;3.40;;;1.40;;
3549;SDS011;45572;48.804;8.330;2022-10-23T12:29:49;1.70;;;0.90;;
3549;SDS011;45572;48.804;8.330;2022-10-23T12:32:29;2.40;;;1.33;;
3549;SDS011;45572;48.804;8.330;2022-10-23T12:35:19;2.50;;;0.90;;
3549;SDS011;45572;48.804;8.330;2022-10-23T12:38:01;1.20;;;1.00;;
3549;SDS011;45572;48.804;8.330;2022-10-23T12:40:39;2.00;;;1.10;;
3549;SDS011;45572;48.804;8.330;2022-10-23T12:45:57;2.37;;;1.10;;
3549;SDS011;45572;48.804;8.330;2022-10-23T12:48:31;1.90;;;0.80;;
3549;SDS011;45572;48.804;8.330;2022-10-23T12:51:00;2.00;;;1.10;;
3549;SDS011;45572;48.804;8.330;2022-10-23T12:53:27;1.83;;;0.97;;
3549;SDS011;45572;48.804;8.330;2022-10-23T12:55:56;3.07;;;0.93;;
3549;SDS011;45572;48.804;8.330;2022-10-23T12:58:32;1.10;;;0.83;;
3549;SDS011;45572;48.804;8.330;2022-10-23T13:01:04;1.43;;;1.20;;
3549;SDS011;45572;48.804;8.330;2022-10-23T13:03:33;4.00;;;0.87;;
3549;SDS011;45572;48.804;8.330;2022-10-23T13:06:01;3.50;;;1.37;;
3549;SDS011;45572;48.804;8.330;2022-10-23T13:08:31;5.40;;;1.40;;
3549;SDS011;45572;48.804;8.330;2022-10-23T13:11:20;4.30;;;1.03;;
3549;SDS011;45572;48.804;8.330;2022-10-23T13:13:52;3.77;;;1.20;;
3549;SDS011;45572;48.804;8.330;2022-10-23T13:16:21;2.90;;;1.43;;
3549;SDS011;45572;48.804;8.330;2022-10-23T13:18:50;3.50;;;1.13;;
3549;SDS011;45572;48.804;8.330;2022-10-23T13:21:19;2.07;;;1.20;;
3549;SDS011;45572;48.804;8.330;2022-10-23T13:23:51;1.70;;;1.20;;
3549;SDS011;45572;48.804;8.330;2022-10-23T13:26:23;2.73;;;1.10;;
3549;SDS011;45572;48.804;8.330;2022-10-23T13:28:57;3.67;;;1.60;;
3549;SDS011;45572;48.804;8.330;2022-10-23T13:31:32;3.90;;;1.60;;
3549;SDS011;45572;48.804;8.330;2022-10-23T13:34:05;5.50;;;2.27;;
3549;SDS011;45572;48.804;8.330;2022-10-23T13:36:51;1.27;;;1.00;;
3549;SDS011;45572;48.804;8.330;2022-10-23T13:39:23;3.20;;;2.20;;
3549;SDS011;45572;48.804;8.330;2022-10-23T13:41:55;5.23;;;1.53;;
3549;SDS011;45572;48.804;8.330;2022-10-23T13:44:27;3.70;;;1.53;;
3549;SDS011;45572;48.804;8.330;2022-10-23T13:46:55;2.97;;;1.53;;
3549;SDS011;45572;48.804;8.330;2022-10-23T13:49:23;4.53;;;1.40;;
3549;SDS011;45572;48.804;8.330;2022-10-23T13:51:51;3.20;;;1.20;;
3549;SDS011;45572;48.804;8.330;2022-10-23T13:54:20;3.90;;;1.27;;
3549;SDS011;45572;48.804;8.330;2022-10-23T13:56:50;2.70;;;1.10;;
3549;SDS011;45572;48.804;8.330;2022-10-23T13:59:19;3.70;;;1.30;;
3549;SDS011;45572;48.804;8.330;2022-10-23T14:01:48;2.50;;;1.07;;
3549;SDS011;45572;48.804;8.330;2022-10-23T14:04:17;4.90;;;0.97;;
3549;SDS011;45572;48.804;8.330;2022-10-23T14:06:45;2.60;;;1.37;;
3549;SDS011;45572;48.804;8.330;2022-10-23T14:09:14;7.90;;;1.00;;
3549;SDS011;45572;48.804;8.330;2022-10-23T14:11:43;2.60;;;1.50;;
3549;SDS011;45572;48.804;8.330;2022-10-23T14:14:11;1.73;;;1.00;;
3549;SDS011;45572;48.804;8.330;2022-10-23T14:16:39;3.50;;;1.30;;
3549;SDS011;45572;48.804;8.330;2022-10-23T14:19:08;2.40;;;1.30;;
3549;SDS011;45572;48.804;8.330;2022-10-23T14:21:38;7.50;;;3.03;;
3549;SDS011;45572;48.804;8.330;2022-10-23T14:24:06;4.10;;;1.40;;
3549;SDS011;45572;48.804;8.330;2022-10-23T14:26:35;8.93;;;1.50;;
3549;SDS011;45572;48.804;8.330;2022-10-23T14:29:03;4.97;;;1.40;;
3549;SDS011;45572;48.804;8.330;2022-10-23T14:31:39;4.87;;;1.60;;
3549;SDS011;45572;48.804;8.330;2022-10-23T14:34:07;3.60;;;1.03;;
3549;SDS011;45572;48.804;8.330;2022-10-23T14:36:36;3.73;;;1.37;;
3549;SDS011;45572;48.804;8.330;2022-10-23T14:39:15;2.60;;;1.40;;
3549;SDS011;45572;48.804;8.330;2022-10-23T14:41:43;2.23;;;1.13;;
3549;SDS011;45572;48.804;8.330;2022-10-23T14:44:11;3.10;;;1.50;;
3549;SDS011;45572;48.804;8.330;2022-10-23T14:46:39;4.30;;;1.50;;
3549;SDS011;45572;48.804;8.330;2022-10-23T14:49:08;2.73;;;1.20;;
3549;SDS011;45572;48.804;8.330;2022-10-23T14:51:36;5.90;;;1.70;;
3549;SDS011;45572;48.804;8.330;2022-10-23T14:54:04;4.30;;;2.00;;
3549;SDS011;45572;48.804;8.330;2022-10-23T14:56:36;1.80;;;1.30;;
3549;SDS011;45572;48.804;8.330;2022-10-23T14:59:05;7.10;;;3.50;;
3549;SDS011;45572;48.804;8.330;2022-10-23T15:01:36;3.10;;;1.93;;
3549;SDS011;45572;48.804;8.330;2022-10-23T15:04:13;3.30;;;2.70;;
3549;SDS011;45572;48.804;8.330;2022-10-23T15:06:42;2.17;;;1.60;;
3549;SDS011;45572;48.804;8.330;2022-10-23T15:09:10;2.47;;;1.70;;
3549;SDS011;45572;48.804;8.330;2022-10-23T15:11:38;3.10;;;1.73;;
3549;SDS011;45572;48.804;8.330;2022-10-23T15:14:06;3.83;;;1.30;;
3549;SDS011;45572;48.804;8.330;2022-10-23T15:16:34;3.67;;;1.33;;
3549;SDS011;45572;48.804;8.330;2022-10-23T15:19:06;4.50;;;1.60;;
3549;SDS011;45572;48.804;8.330;2022-10-23T15:21:41;7.40;;;2.20;;
3549;SDS011;45572;48.804;8.330;2022-10-23T15:24:09;4.87;;;2.93;;
3549;SDS011;45572;48.804;8.330;2022-10-23T15:26:37;7.90;;;2.03;;
3549;SDS011;45572;48.804;8.330;2022-10-23T15:29:07;4.07;;;1.60;;
3549;SDS011;45572;48.804;8.330;2022-10-23T15:31:40;9.77;;;1.57;;
3549;SDS011;45572;48.804;8.330;2022-10-23T15:34:10;5.63;;;1.40;;
3549;SDS011;45572;48.804;8.330;2022-10-23T15:36:41;6.70;;;1.97;;
3549;SDS011;45572;48.804;8.330;2022-10-23T15:39:10;3.47;;;1.53;;
3549;SDS011;45572;48.804;8.330;2022-10-23T15:41:40;11.73;;;1.83;;
3549;SDS011;45572;48.804;8.330;2022-10-23T15:44:10;9.20;;;2.80;;
3549;SDS011;45572;48.804;8.330;2022-10-23T15:46:39;4.23;;;1.07;;
3549;SDS011;45572;48.804;8.330;2022-10-23T15:49:07;5.57;;;1.80;;